logo



Minimumtemperatur heute 0.1     Maximumtemperatur heute 13.3
Datum Zeit
MEZ
Lufttemperatur
C
Windrichtung
Grad
Wind Mittel
Km/h
Wind Min
Km/h
Wind Max
Km/h
rel. Feuchte
%
2018-09-26 14:00:00 13.3 235 1.1 2.5 5.2 38
2018-09-26 13:55:00 13.2 263 0.9 1.0 5.8 40
2018-09-26 13:50:00 13.0 268 1.2 2.2 8.4 38
2018-09-26 13:45:00 12.8 253 1.8 2.7 9.6 40
2018-09-26 13:40:00 12.8 249 1.4 2.6 8.3 38
2018-09-26 13:35:00 12.8 266 1.4 1.8 7.5 39
2018-09-26 13:30:00 12.6 235 1.8 4.8 8.7 40
2018-09-26 13:25:00 12.6 309 1.1 1.6 5.8 42
2018-09-26 13:20:00 12.4 263 0.9 0.9 4.5 40
2018-09-26 13:15:00 12.4 278 1.2 2.5 6.5 40
2018-09-26 13:10:00 12.2 236 1.9 5.0 8.2 41
2018-09-26 13:05:00 12.3 245 1.1 1.9 6.5 44
2018-09-26 13:00:00 12.0 275 1.0 0.5 6.0 42
2018-09-26 12:55:00 12.0 307 1.1 0.8 7.5 41
2018-09-26 12:50:00 11.8 245 1.2 2.3 7.3 43
2018-09-26 12:45:00 11.7 254 1.6 4.0 7.9 42
2018-09-26 12:40:00 11.5 268 2.1 5.3 10.3 44
2018-09-26 12:35:00 11.4 245 2.4 6.5 10.4 42
2018-09-26 12:30:00 11.3 243 2.6 7.6 11.5 44
2018-09-26 12:25:00 11.2 249 2.5 5.9 11.1 43
2018-09-26 12:20:00 11.1 241 1.9 2.9 10.4 43
2018-09-26 12:15:00 11.2 272 2.0 4.1 10.5 42
2018-09-26 12:10:00 11.2 221 1.1 2.0 5.7 43
2018-09-26 12:05:00 11.1 247 0.9 1.8 5.6 47
2018-09-26 12:00:00 11.0 264 0.7 0.2 4.6 45
2018-09-26 11:55:00 11.0 152 0.6 0.3 4.2 46
2018-09-26 11:50:00 10.8 257 1.0 1.9 5.1 47
2018-09-26 11:45:00 10.6 277 1.2 2.2 6.7 46
2018-09-26 11:40:00 10.5 279 0.7 0.3 5.8 45
2018-09-26 11:35:00 10.3 262 1.2 1.9 6.7 45
2018-09-26 11:30:00 10.4 249 1.1 1.0 6.5 45
2018-09-26 11:25:00 10.3 271 1.1 1.9 6.2 46
2018-09-26 11:20:00 10.3 217 0.5 0.1 3.8 47
2018-09-26 11:15:00 10.2 230 1.0 0.8 8.1 49
2018-09-26 11:10:00 10.0 206 1.8 4.6 10.8 50
2018-09-26 11:05:00 10.1 271 0.9 1.6 5.9 50
2018-09-26 11:00:00 10.4 227 0.8 1.3 4.7 44
2018-09-26 10:55:00 10.5 131 0.8 0.4 5.8 47
2018-09-26 10:50:00 10.3 46 0.5 0.0 5.2 51
2018-09-26 10:45:00 10.1 291 0.6 0.0 5.4 49
2018-09-26 10:40:00 10.1 249 0.6 0.2 4.1 51
2018-09-26 10:35:00 10.0 77 0.7 0.9 5.0 50
2018-09-26 10:30:00 9.6 153 0.9 0.2 6.3 50
2018-09-26 10:25:00 9.5 307 0.4 0.0 3.1 54
2018-09-26 10:20:00 8.9 142 0.5 0.0 4.4 60
2018-09-26 10:15:00 8.4 253 1.4 3.6 6.7 59
2018-09-26 10:10:00 8.3 256 1.4 3.8 6.3 62
2018-09-26 10:05:00 8.2 316 1.5 3.4 7.9 62
2018-09-26 10:00:00 8.2 333 1.2 1.8 6.6 66
2018-09-26 09:55:00 8.1 331 0.9 0.4 5.8 66
2018-09-26 09:50:00 8.2 313 0.8 0.4 5.0 65
2018-09-26 09:45:00 8.1 151 0.2 0.0 2.4 65
2018-09-26 09:40:00 7.7 113 0.6 0.2 3.6 72
2018-09-26 09:35:00 7.1 312 1.0 1.7 5.8 72
2018-09-26 09:30:00 7.0 313 1.3 2.2 7.4 72
2018-09-26 09:25:00 7.0 298 0.5 0.0 4.3 72
2018-09-26 09:20:00 6.9 275 0.7 1.0 4.3 72
2018-09-26 09:15:00 7.0 287 0.4 0.5 2.9 71
2018-09-26 09:10:00 6.9 244 0.4 0.0 3.2 71
2018-09-26 09:05:00 6.9 227 0.5 0.0 4.4 71
2018-09-26 09:00:00 6.7 126 0.8 0.1 5.5 71
2018-09-26 08:55:00 6.3 133 1.1 0.0 7.9 72
2018-09-26 08:50:00 6.5 149 0.5 0.1 4.9 75
2018-09-26 08:45:00 6.2 68 1.1 0.6 9.3 75
2018-09-26 08:40:00 6.0 130 0.7 0.0 5.9 77
2018-09-26 08:35:00 5.6 134 1.3 2.8 7.2 76
2018-09-26 08:30:00 5.6 107 1.0 0.8 6.9 77
2018-09-26 08:25:00 5.3 157 1.5 3.1 8.3 75
2018-09-26 08:20:00 5.3 149 1.4 2.7 7.6 76
2018-09-26 08:15:00 5.4 170 1.0 0.5 6.0 76
2018-09-26 08:10:00 5.5 116 0.7 0.8 5.7 75
2018-09-26 08:05:00 5.7 180 0.3 0.0 2.5 77
2018-09-26 08:00:00 5.5 130 0.2 0.0 1.9 78
2018-09-26 07:55:00 5.1 142 0.4 0.6 2.9 78
2018-09-26 07:50:00 4.8 169 0.5 0.1 3.4 80
2018-09-26 07:45:00 4.3 180 0.5 1.0 2.8 81
2018-09-26 07:40:00 4.0 150 0.6 1.1 3.0 81
2018-09-26 07:35:00 3.8 120 0.5 1.1 3.3 82
2018-09-26 07:30:00 3.6 146 0.5 0.8 3.2 83
2018-09-26 07:25:00 3.3 120 0.7 1.3 3.6 83
2018-09-26 07:20:00 3.1 115 0.7 1.3 3.8 84
2018-09-26 07:15:00 3.0 112 0.7 0.0 4.6 85
2018-09-26 07:10:00 2.8 104 0.5 0.1 4.6 87
2018-09-26 07:05:00 2.6 127 0.7 0.0 5.1 87
2018-09-26 07:00:00 2.5 98 0.7 1.2 3.8 88
2018-09-26 06:55:00 2.7 110 0.1 0.0 1.7 91
2018-09-26 06:50:00 2.2 95 0.1 0.0 1.2 92
2018-09-26 06:45:00 1.6 103 0.4 0.1 3.7 93
2018-09-26 06:40:00 1.3 107 0.6 0.6 3.4 93
2018-09-26 06:35:00 1.0 108 0.8 2.1 3.7 93
2018-09-26 06:30:00 0.8 112 0.4 0.0 2.5 93
2018-09-26 06:25:00 0.5 61 0.0 0.0 0.1 93
2018-09-26 06:20:00 0.3 61 0.0 0.0 0.7 93
2018-09-26 06:15:00 0.3 71 0.1 0.0 1.9 93
2018-09-26 06:10:00 0.2 111 0.4 0.6 2.3 93
2018-09-26 06:05:00 0.1 122 0.2 0.5 1.0 92
2018-09-26 06:00:00 0.1 136 0.2 0.0 1.0 92
2018-09-26 05:55:00 0.1 111 0.0 0.0 1.0 92
2018-09-26 05:50:00 0.1 110 0.5 0.8 2.9 92
2018-09-26 05:45:00 0.3 136 0.3 0.0 2.3 92
2018-09-26 05:40:00 0.3 112 0.2 0.0 2.3 92
2018-09-26 05:35:00 0.4 145 0.4 0.0 2.5 92
2018-09-26 05:30:00 0.5 87 0.1 0.0 0.8 92
2018-09-26 05:25:00 0.5 115 0.1 0.0 1.2 92
2018-09-26 05:20:00 0.4 90 0.0 0.0 0.3 92
2018-09-26 05:15:00 0.3 89 0.3 0.0 2.9 92
2018-09-26 05:10:00 0.4 99 0.6 1.6 3.2 92
2018-09-26 05:05:00 0.6 118 0.4 0.8 1.8 92
2018-09-26 05:00:00 0.8 103 0.3 0.1 2.1 92
2018-09-26 04:55:00 0.8 78 0.1 0.1 1.4 92
2018-09-26 04:50:00 0.9 108 0.3 0.3 2.0 92
2018-09-26 04:45:00 0.8 104 0.3 0.7 1.8 92
2018-09-26 04:40:00 0.8 127 0.3 0.6 1.3 92
2018-09-26 04:35:00 0.7 119 0.5 1.2 2.2 92
2018-09-26 04:30:00 0.6 120 0.2 0.0 1.9 92
2018-09-26 04:25:00 0.6 118 0.5 0.4 4.2 92
2018-09-26 04:20:00 0.7 124 1.1 2.7 5.6 92
2018-09-26 04:15:00 0.7 120 1.1 2.9 5.1 92
2018-09-26 04:10:00 0.7 136 0.4 0.4 4.3 92
2018-09-26 04:05:00 0.8 125 0.3 0.2 1.9 92
2018-09-26 04:00:00 0.8 111 0.6 1.0 3.2 92
2018-09-26 03:55:00 0.8 133 0.7 1.8 3.1 92
2018-09-26 03:50:00 0.8 142 0.7 2.1 3.3 92
2018-09-26 03:45:00 0.8 126 0.4 0.6 2.5 92
2018-09-26 03:40:00 0.8 117 0.4 0.8 2.1 92
2018-09-26 03:35:00 0.9 128 0.7 1.9 2.8 92
2018-09-26 03:30:00 0.8 122 0.7 1.6 3.1 91
2018-09-26 03:25:00 0.9 121 0.3 0.2 2.0 91
2018-09-26 03:20:00 1.0 107 0.3 0.2 2.9 91
2018-09-26 03:15:00 1.1 119 0.5 0.5 3.0 91
2018-09-26 03:10:00 1.3 109 0.1 0.0 1.9 91
2018-09-26 03:05:00 1.3 87 0.0 0.0 0.3 91
2018-09-26 03:00:00 1.4 106 0.1 0.0 2.0 90
2018-09-26 02:55:00 1.6 110 0.6 1.0 3.6 90
2018-09-26 02:50:00 1.7 111 0.9 2.1 4.5 91
2018-09-26 02:45:00 1.5 105 0.6 1.5 3.6 91
2018-09-26 02:40:00 1.5 115 0.3 0.4 2.2 90
2018-09-26 02:35:00 1.7 112 0.7 1.1 4.5 90
2018-09-26 02:30:00 1.7 106 0.4 0.3 3.6 90
2018-09-26 02:25:00 1.7 107 0.4 0.4 2.3 89
2018-09-26 02:20:00 2.1 124 0.5 1.3 2.7 90
2018-09-26 02:15:00 2.1 114 0.6 0.7 2.7 89
2018-09-26 02:10:00 2.5 96 0.2 0.3 1.4 90
2018-09-26 02:05:00 2.3 103 0.3 0.0 1.8 89
www.zamg.ac.at

klagenfurt@zamg.ac.at